Booneville, Arkansas
Current Conditions -  °F | °C
As of 8:53 AM on Thursday 23 Oct 2014 (Local Time) from KFSM Reporting Station
Overcast Overcast  
Wind Chill: 55°   Ceiling: 11000
Heat Index: 55°   Visibility: 10mi
Dew Point: 47°   Wind: 7mph
Humidity: 74%   Direction: 90°E
Pressure: 30.19"   Gusts: NA
Location:  35.14°N, 93.92°W
Report Text: KFSM 231353Z 09006KT 10SM OVC110 13/08 A3019 RMK AO2 SLP221 T01280083
Loading
Personal Weather Stations






























Interactive Weather Map
Tropical Storm Tracking
New forecast layout! Learn more

10-Day Weather Forecast

Advertisements
Track Severe Weather on mobile